createdAt,value
2022-12-28T00:00:49.463Z,17.43
2022-12-28T00:06:09.221Z,17.38
2022-12-28T00:08:41.250Z,17.25
2022-12-28T00:11:20.545Z,17.23
2022-12-28T00:13:59.042Z,17.20
2022-12-28T00:16:41.446Z,17.14
2022-12-28T00:19:20.650Z,17.11
2022-12-28T00:21:52.283Z,17.13
2022-12-28T00:24:49.625Z,17.10
2022-12-28T00:27:29.735Z,17.12
2022-12-28T00:30:08.041Z,17.06
2022-12-28T00:32:40.159Z,17.02
2022-12-28T00:35:07.433Z,17.00
2022-12-28T00:37:40.575Z,17.04
2022-12-28T00:43:00.175Z,16.99
2022-12-28T00:45:40.416Z,16.95
2022-12-28T00:48:12.556Z,16.89
2022-12-28T00:50:56.190Z,16.84
2022-12-28T00:53:32.635Z,16.81
2022-12-28T00:56:12.110Z,16.79
2022-12-28T00:58:47.218Z,16.82
2022-12-28T01:01:29.364Z,16.78
2022-12-28T01:04:04.695Z,16.70
2022-12-28T01:06:42.868Z,16.75
2022-12-28T01:09:18.188Z,16.72
2022-12-28T01:11:50.878Z,16.66
2022-12-28T01:14:21.275Z,16.59
2022-12-28T01:16:57.843Z,16.60
2022-12-28T01:19:40.416Z,16.54
2022-12-28T01:22:17.052Z,16.55
2022-12-28T01:24:55.079Z,16.50
2022-12-28T01:27:22.912Z,16.48
2022-12-28T01:29:53.123Z,16.40
2022-12-28T01:32:22.962Z,16.30
2022-12-28T01:34:50.236Z,16.27
2022-12-28T01:37:17.175Z,16.31
2022-12-28T01:39:44.207Z,16.15
2022-12-28T01:42:16.297Z,16.01
2022-12-28T01:44:46.188Z,15.99
2022-12-28T01:47:18.910Z,16.06
2022-12-28T01:50:06.009Z,16.03
2022-12-28T01:52:42.006Z,15.98
2022-12-28T01:55:12.080Z,16.07
2022-12-28T01:57:50.760Z,16.04
2022-12-28T02:00:18.555Z,16.07
2022-12-28T02:02:54.161Z,16.09
2022-12-28T02:05:23.507Z,16.07
2022-12-28T02:08:00.130Z,16.04
2022-12-28T02:10:43.137Z,16.02
2022-12-28T02:13:19.569Z,16.01
2022-12-28T02:15:51.354Z,16.08
2022-12-28T02:18:25.611Z,16.00
2022-12-28T02:21:15.089Z,15.91
2022-12-28T02:24:06.020Z,15.94
2022-12-28T02:26:48.381Z,15.96
2022-12-28T02:29:34.169Z,16.05
2022-12-28T02:32:10.739Z,16.00
2022-12-28T02:34:38.316Z,16.01
2022-12-28T02:37:31.638Z,16.00
2022-12-28T02:40:27.916Z,15.95
2022-12-28T02:43:07.098Z,15.90
2022-12-28T02:46:01.168Z,15.87
2022-12-28T02:49:06.819Z,15.83
2022-12-28T02:51:58.934Z,15.84
2022-12-28T02:54:53.861Z,15.76
2022-12-28T02:57:36.989Z,15.80
2022-12-28T03:00:34.640Z,15.77
2022-12-28T03:03:23.535Z,15.81
2022-12-28T03:06:17.484Z,15.83
2022-12-28T03:09:10.155Z,15.74
2022-12-28T03:12:07.206Z,15.67
2022-12-28T03:14:43.658Z,15.59
2022-12-28T03:17:33.501Z,15.61
2022-12-28T03:20:25.943Z,15.59
2022-12-28T03:23:25.385Z,15.59
2022-12-28T03:26:20.929Z,15.54
2022-12-28T03:29:11.981Z,15.58
2022-12-28T03:31:49.328Z,15.51
2022-12-28T03:34:35.667Z,15.45
2022-12-28T03:37:11.211Z,15.57
2022-12-28T03:39:59.503Z,15.55
2022-12-28T03:43:06.577Z,15.44
2022-12-28T03:45:45.360Z,15.46
2022-12-28T03:48:15.972Z,15.50
2022-12-28T03:50:52.264Z,15.54
2022-12-28T03:53:24.193Z,15.54
2022-12-28T03:56:17.486Z,15.46
2022-12-28T03:58:58.245Z,15.39
2022-12-28T04:01:35.551Z,15.37
2022-12-28T04:04:16.773Z,15.35
2022-12-28T04:06:53.603Z,15.34
2022-12-28T04:09:30.492Z,15.39
2022-12-28T04:12:01.082Z,15.36
2022-12-28T04:15:06.906Z,15.37
2022-12-28T04:17:42.492Z,15.36
2022-12-28T04:20:12.995Z,15.33
2022-12-28T04:22:48.340Z,15.31
2022-12-28T04:25:22.376Z,15.36
2022-12-28T04:28:04.544Z,15.38
2022-12-28T04:31:06.496Z,15.35
2022-12-28T04:33:46.845Z,15.36
2022-12-28T04:36:28.075Z,15.31
2022-12-28T04:38:58.718Z,15.27
2022-12-28T04:41:35.764Z,15.04
2022-12-28T04:44:11.420Z,15.19
2022-12-28T04:46:44.868Z,15.20
2022-12-28T04:49:15.159Z,15.29
2022-12-28T04:51:51.425Z,15.35
2022-12-28T04:54:29.475Z,15.37
2022-12-28T04:57:05.075Z,15.29
2022-12-28T04:59:38.151Z,15.24
2022-12-28T05:02:09.641Z,15.30
2022-12-28T05:04:44.081Z,15.40
2022-12-28T05:07:12.412Z,15.39
2022-12-28T05:09:49.439Z,15.47
2022-12-28T05:12:26.895Z,15.48
2022-12-28T05:15:02.971Z,15.51
2022-12-28T05:17:32.662Z,15.43
2022-12-28T05:20:06.123Z,15.49
2022-12-28T05:22:45.340Z,15.52
2022-12-28T05:25:19.266Z,15.50
2022-12-28T05:27:48.695Z,15.45
2022-12-28T05:30:27.523Z,15.49
2022-12-28T05:33:01.015Z,15.49
2022-12-28T05:35:35.952Z,15.45
2022-12-28T05:38:17.216Z,15.50
2022-12-28T05:40:53.107Z,15.49
2022-12-28T05:43:25.329Z,15.45
2022-12-28T05:45:56.156Z,15.44
2022-12-28T05:48:33.377Z,15.47
2022-12-28T05:51:10.599Z,15.44
2022-12-28T05:53:48.060Z,15.49
2022-12-28T05:56:29.530Z,15.47
2022-12-28T05:59:09.470Z,15.46
2022-12-28T06:01:40.933Z,15.44
2022-12-28T06:04:19.658Z,15.36
2022-12-28T06:07:00.026Z,15.34
2022-12-28T06:09:36.880Z,15.29
2022-12-28T06:12:10.007Z,15.30
2022-12-28T06:14:46.994Z,15.28
2022-12-28T06:17:29.384Z,15.23
2022-12-28T06:19:59.302Z,15.21
2022-12-28T06:22:37.303Z,15.17
2022-12-28T06:25:09.039Z,15.10
2022-12-28T06:27:46.799Z,15.05
2022-12-28T06:30:18.479Z,15.12
2022-12-28T06:32:56.818Z,15.09
2022-12-28T06:35:27.574Z,15.13
2022-12-28T06:38:05.474Z,15.05
2022-12-28T06:41:12.309Z,15.05
2022-12-28T06:43:39.796Z,15.04
2022-12-28T06:46:23.460Z,15.00
2022-12-28T06:48:55.923Z,14.97
2022-12-28T06:51:40.767Z,14.91
2022-12-28T06:54:15.521Z,14.88
2022-12-28T06:56:45.949Z,14.91
2022-12-28T06:59:18.560Z,14.86
2022-12-28T07:01:55.596Z,14.88
2022-12-28T07:04:37.505Z,14.81
2022-12-28T07:07:16.472Z,14.81
2022-12-28T07:09:50.566Z,14.81
2022-12-28T07:12:25.403Z,14.83
2022-12-28T07:15:02.973Z,14.82
2022-12-28T07:17:29.982Z,14.79
2022-12-28T07:19:57.060Z,14.77
2022-12-28T07:22:24.528Z,14.83
2022-12-28T07:24:51.591Z,14.83
2022-12-28T07:27:19.314Z,14.80
2022-12-28T07:29:46.404Z,14.78
2022-12-28T07:32:13.407Z,14.81
2022-12-28T07:34:40.452Z,14.77
2022-12-28T07:37:07.466Z,14.74
2022-12-28T07:39:38.252Z,14.83
2022-12-28T07:42:07.121Z,14.75
2022-12-28T07:44:38.049Z,14.80
2022-12-28T07:47:10.408Z,14.71
2022-12-28T07:49:37.552Z,14.75
2022-12-28T07:52:04.611Z,14.66
2022-12-28T07:54:31.811Z,14.68
2022-12-28T07:57:01.321Z,14.77
2022-12-28T07:59:31.194Z,14.70
2022-12-28T08:01:58.721Z,14.70
2022-12-28T08:04:25.740Z,14.78
2022-12-28T08:06:52.828Z,14.82
2022-12-28T08:09:19.991Z,14.86
2022-12-28T08:11:50.051Z,14.83
2022-12-28T08:14:17.096Z,14.91
2022-12-28T08:16:46.857Z,14.91
2022-12-28T08:19:14.047Z,14.99
2022-12-28T08:21:43.192Z,14.99
2022-12-28T08:24:13.761Z,15.00
2022-12-28T08:26:46.325Z,15.04
2022-12-28T08:29:20.145Z,15.08
2022-12-28T08:31:56.420Z,15.11
2022-12-28T08:34:27.101Z,15.13
2022-12-28T08:37:05.210Z,15.10
2022-12-28T08:39:33.488Z,15.13
2022-12-28T08:42:04.093Z,15.21
2022-12-28T08:44:31.112Z,15.24
2022-12-28T08:46:58.493Z,15.31
2022-12-28T08:49:25.669Z,15.39
2022-12-28T08:51:55.796Z,15.49
2022-12-28T08:54:24.987Z,15.51
2022-12-28T08:56:53.385Z,15.58
2022-12-28T08:59:30.412Z,15.67
2022-12-28T09:02:13.355Z,15.84
2022-12-28T09:04:46.815Z,16.09
2022-12-28T09:07:26.553Z,16.37
2022-12-28T09:09:56.455Z,16.54
2022-12-28T09:15:13.591Z,16.84
2022-12-28T09:17:42.076Z,17.03
2022-12-28T09:20:11.715Z,17.31
2022-12-28T09:22:52.459Z,17.64
2022-12-28T09:25:27.954Z,17.98
2022-12-28T09:27:59.600Z,18.40
2022-12-28T09:30:26.970Z,18.83
2022-12-28T09:33:26.441Z,19.21
2022-12-28T09:36:00.245Z,19.63
2022-12-28T09:38:37.005Z,19.93
2022-12-28T09:41:13.200Z,20.10
2022-12-28T09:43:42.751Z,20.58
2022-12-28T09:46:18.569Z,20.88
2022-12-28T09:48:57.383Z,21.19
2022-12-28T09:51:29.128Z,21.49
2022-12-28T09:54:08.993Z,21.71
2022-12-28T09:56:49.059Z,22.07
2022-12-28T09:59:27.641Z,22.31
2022-12-28T10:01:59.504Z,22.63
2022-12-28T10:04:32.246Z,22.86
2022-12-28T10:07:10.973Z,23.03
2022-12-28T10:09:41.119Z,23.42
2022-12-28T10:12:15.923Z,23.64
2022-12-28T10:14:45.982Z,23.90
2022-12-28T10:17:16.201Z,24.24
2022-12-28T10:19:47.392Z,24.52
2022-12-28T10:22:17.511Z,24.68
2022-12-28T10:24:47.727Z,25.00
2022-12-28T10:27:23.126Z,25.04
2022-12-28T10:29:53.928Z,25.46
2022-12-28T10:32:21.576Z,24.62
2022-12-28T10:35:03.823Z,24.91
2022-12-28T10:37:35.218Z,24.14
2022-12-28T10:40:05.807Z,24.69
2022-12-28T10:42:38.675Z,24.44
2022-12-28T10:45:18.302Z,24.19
2022-12-28T10:47:58.640Z,22.60
2022-12-28T10:50:38.191Z,22.87
2022-12-28T10:53:05.753Z,23.16
2022-12-28T10:55:34.395Z,23.29
2022-12-28T10:58:31.200Z,22.41
2022-12-28T11:01:14.977Z,23.58
2022-12-28T11:03:44.555Z,23.72
2022-12-28T11:06:26.572Z,22.90
2022-12-28T11:09:15.296Z,22.90
2022-12-28T11:11:45.009Z,23.88
2022-12-28T11:14:23.958Z,24.70
2022-12-28T11:16:53.576Z,25.45
2022-12-28T11:19:29.745Z,24.54
2022-12-28T11:22:06.220Z,25.98
2022-12-28T11:24:39.586Z,25.60
2022-12-28T11:27:14.388Z,25.54
2022-12-28T11:29:44.375Z,25.91
2022-12-28T11:32:24.778Z,24.11
2022-12-28T11:34:56.961Z,24.66
2022-12-28T11:37:28.821Z,25.01
2022-12-28T11:39:56.933Z,26.52
2022-12-28T11:42:39.996Z,25.41
2022-12-28T11:45:15.895Z,24.77
2022-12-28T11:47:43.419Z,24.65
2022-12-28T11:50:30.267Z,25.05
2022-12-28T11:52:57.629Z,25.59
2022-12-28T11:55:37.385Z,26.14
2022-12-28T11:58:25.806Z,27.25
2022-12-28T12:00:56.782Z,26.85
2022-12-28T12:03:43.065Z,27.30
2022-12-28T12:06:13.788Z,27.19
2022-12-28T12:08:55.319Z,28.04
2022-12-28T12:11:30.070Z,27.76
2022-12-28T12:14:00.305Z,28.33
2022-12-28T12:16:48.571Z,28.02
2022-12-28T12:19:29.202Z,27.35
2022-12-28T12:22:02.596Z,28.74
2022-12-28T12:24:33.554Z,28.18
2022-12-28T12:27:29.678Z,28.32
2022-12-28T12:30:06.232Z,27.64
2022-12-28T12:32:34.051Z,28.42
2022-12-28T12:35:05.431Z,29.38
2022-12-28T12:37:56.806Z,30.01
2022-12-28T12:40:35.121Z,30.38
2022-12-28T12:43:22.669Z,29.84
2022-12-28T12:46:08.853Z,30.35
2022-12-28T12:48:55.276Z,31.57
2022-12-28T12:51:44.285Z,31.85
2022-12-28T12:54:14.097Z,30.97
2022-12-28T12:56:47.224Z,31.67
2022-12-28T12:59:42.737Z,30.74
2022-12-28T13:02:12.704Z,29.82
2022-12-28T13:04:43.557Z,28.79
2022-12-28T13:07:22.789Z,27.73
2022-12-28T13:09:53.048Z,27.86
2022-12-28T13:12:25.972Z,28.52
2022-12-28T13:15:10.678Z,28.60
2022-12-28T13:17:40.289Z,27.20
2022-12-28T13:20:08.256Z,27.33
2022-12-28T13:22:35.201Z,28.11
2022-12-28T13:25:04.890Z,28.90
2022-12-28T13:27:35.361Z,28.43
2022-12-28T13:30:05.675Z,27.66
2022-12-28T13:32:38.236Z,28.12
2022-12-28T13:35:19.837Z,27.66
2022-12-28T13:38:03.943Z,27.25
2022-12-28T13:40:43.434Z,27.43
2022-12-28T13:43:26.539Z,25.77
2022-12-28T13:46:00.751Z,25.54
2022-12-28T13:48:38.704Z,24.28
2022-12-28T13:51:09.175Z,25.59
2022-12-28T13:53:41.347Z,24.39
2022-12-28T13:56:13.051Z,25.69
2022-12-28T13:58:48.632Z,24.66
2022-12-28T14:01:20.097Z,24.23
2022-12-28T14:03:50.775Z,24.93
2022-12-28T14:06:19.922Z,25.99
2022-12-28T14:08:48.124Z,25.95
2022-12-28T14:11:21.779Z,25.63
2022-12-28T14:13:51.611Z,26.46
2022-12-28T14:16:22.199Z,25.24
2022-12-28T14:18:49.835Z,25.69
2022-12-28T14:21:16.947Z,25.41
2022-12-28T14:23:44.733Z,25.72
2022-12-28T14:26:24.805Z,25.31
2022-12-28T14:28:54.872Z,24.80
2022-12-28T14:31:24.896Z,24.11
2022-12-28T14:33:53.604Z,24.76
2022-12-28T14:36:22.541Z,23.60
2022-12-28T14:39:01.101Z,23.56
2022-12-28T14:41:44.416Z,23.33
2022-12-28T14:44:40.741Z,23.43
2022-12-28T14:47:27.025Z,23.38
2022-12-28T14:49:58.323Z,22.04
2022-12-28T14:52:35.119Z,23.10
2022-12-28T14:55:19.359Z,22.29
2022-12-28T14:57:47.639Z,23.01
2022-12-28T15:00:27.360Z,22.47
2022-12-28T15:03:20.893Z,22.55
2022-12-28T15:05:52.390Z,22.32
2022-12-28T15:08:19.953Z,21.76
2022-12-28T15:10:48.866Z,22.12
2022-12-28T15:13:17.040Z,22.16
2022-12-28T15:18:27.745Z,21.02
2022-12-28T15:20:58.508Z,21.35
2022-12-28T15:23:29.085Z,20.56
2022-12-28T15:26:06.166Z,20.75
2022-12-28T15:28:33.263Z,21.27
2022-12-28T15:31:07.253Z,20.34
2022-12-28T15:33:35.979Z,20.07
2022-12-28T15:36:10.768Z,19.93
2022-12-28T15:38:41.535Z,20.05
2022-12-28T15:41:30.151Z,19.68
2022-12-28T15:43:58.171Z,19.84
2022-12-28T15:46:25.712Z,19.73
2022-12-28T15:48:53.384Z,19.81
2022-12-28T15:51:26.605Z,19.25
2022-12-28T15:53:53.707Z,18.77
2022-12-28T15:56:24.762Z,18.94
2022-12-28T15:58:55.065Z,18.92
2022-12-28T16:01:22.946Z,19.31
2022-12-28T16:03:53.862Z,19.17
2022-12-28T16:06:26.514Z,19.41
2022-12-28T16:08:55.237Z,19.11
2022-12-28T16:11:27.464Z,18.94
2022-12-28T16:14:18.410Z,19.30
2022-12-28T16:16:47.159Z,18.74
2022-12-28T16:19:15.071Z,18.88
2022-12-28T16:21:44.623Z,19.10
2022-12-28T16:24:12.321Z,19.06
2022-12-28T16:26:39.446Z,18.31
2022-12-28T16:29:06.685Z,18.71
2022-12-28T16:31:35.059Z,18.77
2022-12-28T16:34:11.898Z,18.50
2022-12-28T16:36:41.935Z,18.25
2022-12-28T16:39:18.611Z,18.53
2022-12-28T16:41:45.746Z,17.82
2022-12-28T16:44:21.001Z,18.09
2022-12-28T16:46:48.632Z,18.24
2022-12-28T16:49:15.746Z,17.71
2022-12-28T16:51:44.117Z,17.94
2022-12-28T16:54:20.889Z,18.40
2022-12-28T16:56:48.590Z,17.67
2022-12-28T16:59:16.947Z,17.84
2022-12-28T17:01:48.035Z,17.97
2022-12-28T17:04:18.174Z,17.78
2022-12-28T17:06:48.529Z,18.08
2022-12-28T17:09:15.649Z,17.77
2022-12-28T17:11:42.767Z,17.69
2022-12-28T17:14:10.951Z,17.64
2022-12-28T17:16:43.415Z,17.64
2022-12-28T17:19:18.677Z,17.97
2022-12-28T17:21:46.703Z,17.96
2022-12-28T17:24:16.887Z,17.88
2022-12-28T17:26:51.511Z,17.93
2022-12-28T17:29:19.458Z,18.04
2022-12-28T17:31:51.549Z,17.91
2022-12-28T17:34:29.160Z,17.54
2022-12-28T17:37:00.955Z,17.94
2022-12-28T17:39:40.181Z,17.46
2022-12-28T17:42:12.094Z,17.80
2022-12-28T17:44:41.598Z,17.86
2022-12-28T17:47:11.120Z,17.64
2022-12-28T17:49:38.186Z,17.80
2022-12-28T17:52:13.656Z,17.79
2022-12-28T17:54:44.465Z,17.99
2022-12-28T17:57:14.099Z,17.74
2022-12-28T17:59:41.472Z,17.64
2022-12-28T18:02:13.235Z,17.49
2022-12-28T18:04:50.084Z,17.56
2022-12-28T18:07:28.504Z,17.31
2022-12-28T18:09:59.646Z,17.42
2022-12-28T18:12:32.855Z,17.28
2022-12-28T18:15:02.674Z,17.14
2022-12-28T18:17:30.239Z,17.00
2022-12-28T18:20:04.222Z,16.93
2022-12-28T18:22:42.225Z,17.32
2022-12-28T18:25:09.801Z,17.13
2022-12-28T18:27:45.434Z,17.05
2022-12-28T18:30:22.581Z,17.26
2022-12-28T18:32:52.388Z,16.93
2022-12-28T18:35:31.057Z,16.76
2022-12-28T18:37:58.714Z,16.58
2022-12-28T18:40:26.372Z,17.14
2022-12-28T18:42:57.647Z,16.95
2022-12-28T18:45:25.900Z,16.88
2022-12-28T18:47:53.312Z,16.85
2022-12-28T18:50:25.629Z,16.88
2022-12-28T18:52:54.117Z,17.18
2022-12-28T18:55:24.661Z,17.46
2022-12-28T18:57:52.200Z,17.37
2022-12-28T19:00:19.757Z,17.40
2022-12-28T19:02:50.757Z,17.57
2022-12-28T19:05:18.084Z,17.32
2022-12-28T19:07:50.262Z,17.47
2022-12-28T19:10:21.497Z,17.21
2022-12-28T19:12:48.733Z,17.18
2022-12-28T19:15:16.029Z,17.22
2022-12-28T19:17:45.841Z,17.31
2022-12-28T19:20:15.467Z,17.32
2022-12-28T19:22:51.499Z,17.20
2022-12-28T19:25:23.458Z,16.89
2022-12-28T19:27:51.239Z,17.14
2022-12-28T19:30:18.808Z,17.40
2022-12-28T19:32:46.144Z,17.14
2022-12-28T19:35:15.846Z,17.43
2022-12-28T19:37:46.741Z,17.48
2022-12-28T19:40:17.300Z,17.49
2022-12-28T19:42:46.716Z,17.54
2022-12-28T19:45:16.884Z,17.48
2022-12-28T19:47:44.885Z,17.32
2022-12-28T19:50:15.333Z,17.36
2022-12-28T19:52:54.670Z,17.42
2022-12-28T19:55:24.918Z,17.55
2022-12-28T19:57:54.119Z,17.46
2022-12-28T20:00:21.726Z,17.57
2022-12-28T20:02:49.827Z,17.60
2022-12-28T20:05:26.088Z,17.77
2022-12-28T20:07:55.778Z,17.78
2022-12-28T20:10:23.481Z,17.58
2022-12-28T20:13:00.211Z,17.74
2022-12-28T20:15:45.498Z,17.65
2022-12-28T20:18:14.878Z,17.31
2022-12-28T20:21:17.498Z,17.43
2022-12-28T20:23:32.162Z,17.28
2022-12-28T20:26:04.774Z,17.38
2022-12-28T20:28:35.636Z,17.47
2022-12-28T20:31:17.894Z,17.59
2022-12-28T20:33:53.930Z,17.52
2022-12-28T20:36:35.272Z,17.62
2022-12-28T20:39:10.363Z,17.66
2022-12-28T20:42:06.433Z,17.68
2022-12-28T20:44:38.189Z,17.55
2022-12-28T20:47:12.989Z,17.59
2022-12-28T20:49:49.101Z,17.41
2022-12-28T20:52:27.751Z,17.41
2022-12-28T20:54:59.616Z,17.50
2022-12-28T20:57:31.445Z,17.40
2022-12-28T21:00:01.401Z,17.48
2022-12-28T21:02:32.663Z,17.50
2022-12-28T21:05:04.488Z,17.59
2022-12-28T21:07:40.951Z,17.60
2022-12-28T21:10:29.303Z,17.74
2022-12-28T21:13:12.733Z,17.77
2022-12-28T21:15:42.068Z,17.82
2022-12-28T21:18:19.443Z,17.80
2022-12-28T21:21:03.892Z,17.82
2022-12-28T21:23:32.207Z,17.82
2022-12-28T21:26:06.489Z,17.79
2022-12-28T21:28:42.343Z,17.79
2022-12-28T21:31:10.530Z,17.76
2022-12-28T21:33:53.817Z,17.74
2022-12-28T21:36:22.632Z,17.72
2022-12-28T21:38:54.619Z,17.73
2022-12-28T21:41:43.210Z,17.69
2022-12-28T21:44:13.392Z,17.66
2022-12-28T21:46:48.842Z,17.68
2022-12-28T21:49:21.685Z,17.62
2022-12-28T21:51:50.830Z,17.65
2022-12-28T21:54:22.520Z,17.60
2022-12-28T21:57:05.817Z,17.59
2022-12-28T21:59:33.074Z,17.63
2022-12-28T22:02:18.840Z,17.68
2022-12-28T22:05:11.430Z,17.65
2022-12-28T22:07:39.496Z,17.68
2022-12-28T22:10:43.126Z,17.62
2022-12-28T22:13:15.653Z,17.64
2022-12-28T22:16:01.844Z,17.59
2022-12-28T22:19:01.461Z,17.63
2022-12-28T22:21:35.282Z,17.57
2022-12-28T22:24:13.482Z,17.55
2022-12-28T22:26:42.951Z,17.48
2022-12-28T22:29:25.564Z,17.41
2022-12-28T22:31:56.379Z,17.47
2022-12-28T22:34:24.912Z,17.48
2022-12-28T22:36:58.221Z,17.49
2022-12-28T22:39:31.380Z,17.46
2022-12-28T22:42:15.972Z,17.46
2022-12-28T22:44:45.666Z,17.35
2022-12-28T22:47:23.463Z,17.37
2022-12-28T22:50:07.530Z,17.39
2022-12-28T22:52:37.184Z,17.36
2022-12-28T22:55:16.013Z,17.35
2022-12-28T22:57:50.083Z,17.37
2022-12-28T23:00:22.988Z,17.35
2022-12-28T23:02:58.142Z,17.35
2022-12-28T23:08:28.969Z,17.32
2022-12-28T23:14:49.286Z,17.21
2022-12-28T23:20:45.824Z,17.16
2022-12-28T23:27:01.929Z,17.11
2022-12-28T23:29:41.087Z,17.12
2022-12-28T23:32:22.801Z,17.12
2022-12-28T23:35:00.235Z,17.11
2022-12-28T23:37:41.879Z,17.09
2022-12-28T23:40:21.142Z,17.12
2022-12-28T23:42:56.187Z,17.11
2022-12-28T23:45:39.490Z,17.07
2022-12-28T23:48:13.563Z,17.08
2022-12-28T23:51:10.729Z,17.02
2022-12-28T23:53:44.308Z,17.01
2022-12-28T23:56:18.907Z,17.05
2022-12-28T23:58:55.391Z,17.01
